Terminal Aerodrome Forecast
Issued by NWS Cleveland, OH

Home | Current Version | Previous Version | Graphics & Text | Print | Product List | Glossary Off
Versions: 1 2 3 4 5 6 7 8 9 10 11 12 13 14 15 16 17 18 19 20 21 22 23 24

285
FTUS41 KCLE 092340
TAFTOL
TAF
KTOL 092340Z 1000/1024 31005KT P6SM VCSH SCT015 OVC025
     FM100200 31008KT P6SM SCT015 BKN035
     FM100800 28008KT P6SM SCT025 BKN035
     FM101100 25010KT P6SM SCT015 OVC025=

USA.gov is the U.S. government's official web portal to all federal, state and local government web resources and services.